sensor_id;sensor_type;location;lat;lon;timestamp;temperature;humidity
56436;DHT22;42335;44.872;20.658;2022-11-15T08:23:01;384.00;2329.60
56436;DHT22;42335;44.872;20.658;2022-11-15T08:25:29;384.90;2329.60
56436;DHT22;42335;44.872;20.658;2022-11-15T08:27:57;461.10;2227.20
56436;DHT22;42335;44.872;20.658;2022-11-15T08:30:25;512.20;1868.80
56436;DHT22;42335;44.872;20.658;2022-11-15T08:32:53;564.00;1612.80
56436;DHT22;42335;44.872;20.658;2022-11-15T08:35:22;615.10;1382.40
56436;DHT22;42335;44.872;20.658;2022-11-15T08:37:47;665.90;1254.40
56436;DHT22;42335;44.872;20.658;2022-11-15T08:42:42;768.10;1126.40
56436;DHT22;42335;44.872;20.658;2022-11-15T08:45:11;768.50;998.40
56436;DHT22;42335;44.872;20.658;2022-11-15T08:47:38;768.70;972.80
56436;DHT22;42335;44.872;20.658;2022-11-15T08:50:04;793.90;972.80
56436;DHT22;42335;44.872;20.658;2022-11-15T08:52:30;794.00;947.20
56436;DHT22;42335;44.872;20.658;2022-11-15T08:54:55;768.30;972.80
56436;DHT22;42335;44.872;20.658;2022-11-15T08:57:21;717.70;1024.00
56436;DHT22;42335;44.872;20.658;2022-11-15T08:59:47;717.10;1049.60
56436;DHT22;42335;44.872;20.658;2022-11-15T09:02:15;717.20;1024.00
56436;DHT22;42335;44.872;20.658;2022-11-15T09:04:42;717.20;1049.60
56436;DHT22;42335;44.872;20.658;2022-11-15T09:07:10;717.30;1024.00
56436;DHT22;42335;44.872;20.658;2022-11-15T09:09:35;717.40;1024.00
56436;DHT22;42335;44.872;20.658;2022-11-15T09:12:01;742.70;998.40
56436;DHT22;42335;44.872;20.658;2022-11-15T09:14:30;717.50;1024.00
56436;DHT22;42335;44.872;20.658;2022-11-15T09:16:56;666.50;1075.20
56436;DHT22;42335;44.872;20.658;2022-11-15T09:19:22;640.50;1126.40
56436;DHT22;42335;44.872;20.658;2022-11-15T09:21:47;614.90;1203.20
56436;DHT22;42335;44.872;20.658;2022-11-15T09:24:13;589.60;1228.80
56436;DHT22;42335;44.872;20.658;2022-11-15T09:26:39;589.20;1280.00
56436;DHT22;42335;44.872;20.658;2022-11-15T09:29:05;563.80;1331.20
56436;DHT22;42335;44.872;20.658;2022-11-15T09:31:31;538.50;1356.80
56436;DHT22;42335;44.872;20.658;2022-11-15T09:33:56;538.00;1408.00
56436;DHT22;42335;44.872;20.658;2022-11-15T09:36:22;537.90;1408.00
56436;DHT22;42335;44.872;20.658;2022-11-15T09:38:48;538.10;1382.40
56436;DHT22;42335;44.872;20.658;2022-11-15T09:49:15;486.60;1561.60
56436;DHT22;42335;44.872;20.658;2022-11-15T09:51:44;461.60;1587.20
56436;DHT22;42335;44.872;20.658;2022-11-15T09:54:36;461.20;1638.40
56436;DHT22;42335;44.872;20.658;2022-11-15T09:57:12;461.00;1664.00
56436;DHT22;42335;44.872;20.658;2022-11-15T09:59:59;460.90;1689.60
56436;DHT22;42335;44.872;20.658;2022-11-15T10:05:20;435.60;1740.80
56436;DHT22;42335;44.872;20.658;2022-11-15T10:10:36;435.20;1792.00
56436;DHT22;42335;44.872;20.658;2022-11-15T10:13:02;410.20;1843.20
56436;DHT22;42335;44.872;20.658;2022-11-15T10:15:28;410.00;1868.80
56436;DHT22;42335;44.872;20.658;2022-11-15T10:18:14;409.80;1894.40
56436;DHT22;42335;44.872;20.658;2022-11-15T10:21:00;409.60;1945.60
56436;DHT22;42335;44.872;20.658;2022-11-15T10:23:29;410.20;1920.00
56436;DHT22;42335;44.872;20.658;2022-11-15T10:25:58;410.00;1920.00
56436;DHT22;42335;44.872;20.658;2022-11-15T10:28:30;410.00;1920.00
56436;DHT22;42335;44.872;20.658;2022-11-15T10:30:58;410.00;1945.60
56436;DHT22;42335;44.872;20.658;2022-11-15T10:33:30;410.00;1945.60
56436;DHT22;42335;44.872;20.658;2022-11-15T10:46:44;410.20;1996.80
56436;DHT22;42335;44.872;20.658;2022-11-15T10:49:17;410.20;1996.80
56436;DHT22;42335;44.872;20.658;2022-11-15T10:51:52;410.30;1996.80
56436;DHT22;42335;44.872;20.658;2022-11-15T10:56:55;410.10;2048.00
56436;DHT22;42335;44.872;20.658;2022-11-15T10:59:35;410.00;2048.00
56436;DHT22;42335;44.872;20.658;2022-11-15T11:02:02;409.90;2073.60
56436;DHT22;42335;44.872;20.658;2022-11-15T11:04:28;409.80;2099.20
56436;DHT22;42335;44.872;20.658;2022-11-15T11:06:56;409.90;2124.80
56436;DHT22;42335;44.872;20.658;2022-11-15T11:11:53;409.70;2150.40
56436;DHT22;42335;44.872;20.658;2022-11-15T11:33:50;409.90;2252.80
56436;DHT22;42335;44.872;20.658;2022-11-15T11:36:39;409.80;2227.20
56436;DHT22;42335;44.872;20.658;2022-11-15T11:39:35;409.80;2252.80
56436;DHT22;42335;44.872;20.658;2022-11-15T11:48:23;409.80;2278.40
56436;DHT22;42335;44.872;20.658;2022-11-15T11:50:28;409.70;2278.40
56436;DHT22;42335;44.872;20.658;2022-11-15T11:52:57;409.70;2304.00
56436;DHT22;42335;44.872;20.658;2022-11-15T11:55:54;409.60;2304.00
56436;DHT22;42335;44.872;20.658;2022-11-15T11:58:37;384.90;2304.00
56436;DHT22;42335;44.872;20.658;2022-11-15T12:06:38;384.70;2329.60
56436;DHT22;42335;44.872;20.658;2022-11-15T12:09:23;384.70;2329.60
56436;DHT22;42335;44.872;20.658;2022-11-15T12:12:21;384.70;2329.60
56436;DHT22;42335;44.872;20.658;2022-11-15T12:14:56;384.70;2329.60
56436;DHT22;42335;44.872;20.658;2022-11-15T12:17:23;384.60;2329.60
56436;DHT22;42335;44.872;20.658;2022-11-15T12:19:52;384.60;2329.60
56436;DHT22;42335;44.872;20.658;2022-11-15T12:22:46;384.70;2329.60
56436;DHT22;42335;44.872;20.658;2022-11-15T12:25:25;384.70;2329.60
56436;DHT22;42335;44.872;20.658;2022-11-15T12:28:11;384.70;2329.60
56436;DHT22;42335;44.872;20.658;2022-11-15T12:30:45;384.60;2329.60
56436;DHT22;42335;44.872;20.658;2022-11-15T12:33:36;384.60;2329.60
56436;DHT22;42335;44.872;20.658;2022-11-15T12:38:54;384.50;2329.60
56436;DHT22;42335;44.872;20.658;2022-11-15T12:41:23;384.60;2329.60
56436;DHT22;42335;44.872;20.658;2022-11-15T12:43:49;384.50;2329.60
56436;DHT22;42335;44.872;20.658;2022-11-15T12:46:20;384.50;2329.60
56436;DHT22;42335;44.872;20.658;2022-11-15T12:48:54;384.50;2329.60
56436;DHT22;42335;44.872;20.658;2022-11-15T12:51:22;384.50;2329.60
56436;DHT22;42335;44.872;20.658;2022-11-15T12:53:48;384.40;2329.60
56436;DHT22;42335;44.872;20.658;2022-11-15T13:14:52;384.70;2329.60
56436;DHT22;42335;44.872;20.658;2022-11-15T13:17:28;384.70;2329.60
56436;DHT22;42335;44.872;20.658;2022-11-15T13:20:00;384.70;2329.60
56436;DHT22;42335;44.872;20.658;2022-11-15T13:22:27;384.70;2329.60
56436;DHT22;42335;44.872;20.658;2022-11-15T13:30:51;384.80;2329.60
56436;DHT22;42335;44.872;20.658;2022-11-15T13:33:23;384.80;2329.60
56436;DHT22;42335;44.872;20.658;2022-11-15T13:35:52;384.80;2329.60
56436;DHT22;42335;44.872;20.658;2022-11-15T13:38:30;384.90;2329.60
56436;DHT22;42335;44.872;20.658;2022-11-15T13:40:58;384.90;2329.60
56436;DHT22;42335;44.872;20.658;2022-11-15T13:43:30;384.90;2329.60
56436;DHT22;42335;44.872;20.658;2022-11-15T13:46:16;409.60;2355.20
56436;DHT22;42335;44.872;20.658;2022-11-15T13:48:43;409.70;2355.20
56436;DHT22;42335;44.872;20.658;2022-11-15T13:54:01;409.70;2355.20
56436;DHT22;42335;44.872;20.658;2022-11-15T13:56:30;409.60;2355.20
56436;DHT22;42335;44.872;20.658;2022-11-15T13:58:57;409.60;2355.20
56436;DHT22;42335;44.872;20.658;2022-11-15T14:01:23;409.60;2355.20
56436;DHT22;42335;44.872;20.658;2022-11-15T14:03:57;384.90;2329.60
56436;DHT22;42335;44.872;20.658;2022-11-15T14:06:25;409.60;2355.20
56436;DHT22;42335;44.872;20.658;2022-11-15T14:09:34;384.90;2329.60
56436;DHT22;42335;44.872;20.658;2022-11-15T14:12:02;384.80;2329.60
56436;DHT22;42335;44.872;20.658;2022-11-15T14:14:46;384.60;2329.60
56436;DHT22;42335;44.872;20.658;2022-11-15T14:17:34;384.60;2329.60
56436;DHT22;42335;44.872;20.658;2022-11-15T14:20:00;384.60;2329.60
56436;DHT22;42335;44.872;20.658;2022-11-15T14:22:27;384.70;2329.60
56436;DHT22;42335;44.872;20.658;2022-11-15T14:27:38;384.70;2329.60
56436;DHT22;42335;44.872;20.658;2022-11-15T14:30:04;384.60;2329.60
56436;DHT22;42335;44.872;20.658;2022-11-15T14:35:18;384.40;2329.60
56436;DHT22;42335;44.872;20.658;2022-11-15T14:37:44;384.20;2329.60
56436;DHT22;42335;44.872;20.658;2022-11-15T14:40:14;384.10;2329.60
56436;DHT22;42335;44.872;20.658;2022-11-15T14:42:40;384.10;2329.60
56436;DHT22;42335;44.872;20.658;2022-11-15T14:45:12;359.30;2329.60
56436;DHT22;42335;44.872;20.658;2022-11-15T14:47:39;359.10;2329.60
56436;DHT22;42335;44.872;20.658;2022-11-15T14:50:05;359.20;2329.60
56436;DHT22;42335;44.872;20.658;2022-11-15T14:52:31;359.20;2329.60
56436;DHT22;42335;44.872;20.658;2022-11-15T14:55:03;359.10;2329.60
56436;DHT22;42335;44.872;20.658;2022-11-15T14:57:34;359.00;2329.60
56436;DHT22;42335;44.872;20.658;2022-11-15T15:00:00;359.00;2329.60
56436;DHT22;42335;44.872;20.658;2022-11-15T15:02:27;358.90;2329.60
56436;DHT22;42335;44.872;20.658;2022-11-15T15:04:53;358.80;2329.60
56436;DHT22;42335;44.872;20.658;2022-11-15T15:07:19;358.70;2329.60
56436;DHT22;42335;44.872;20.658;2022-11-15T15:09:45;358.60;2329.60
56436;DHT22;42335;44.872;20.658;2022-11-15T15:12:22;358.60;2329.60
56436;DHT22;42335;44.872;20.658;2022-11-15T15:14:49;358.50;2329.60
56436;DHT22;42335;44.872;20.658;2022-11-15T15:17:17;358.40;2329.60
56436;DHT22;42335;44.872;20.658;2022-11-15T15:19:43;358.40;2329.60
56436;DHT22;42335;44.872;20.658;2022-11-15T15:22:19;358.40;2329.60
56436;DHT22;42335;44.872;20.658;2022-11-15T15:24:48;333.70;2329.60
56436;DHT22;42335;44.872;20.658;2022-11-15T15:27:14;333.70;2329.60
56436;DHT22;42335;44.872;20.658;2022-11-15T15:29:40;333.70;2329.60
56436;DHT22;42335;44.872;20.658;2022-11-15T15:32:06;333.50;2329.60
56436;DHT22;42335;44.872;20.658;2022-11-15T15:34:32;333.50;2329.60
56436;DHT22;42335;44.872;20.658;2022-11-15T15:39:45;333.50;2329.60
56436;DHT22;42335;44.872;20.658;2022-11-15T15:42:11;333.50;2329.60
56436;DHT22;42335;44.872;20.658;2022-11-15T15:44:37;333.40;2329.60
56436;DHT22;42335;44.872;20.658;2022-11-15T15:47:09;333.50;2329.60
56436;DHT22;42335;44.872;20.658;2022-11-15T15:49:36;333.40;2329.60
56436;DHT22;42335;44.872;20.658;2022-11-15T15:52:01;333.40;2329.60
56436;DHT22;42335;44.872;20.658;2022-11-15T15:54:27;333.40;2329.60
56436;DHT22;42335;44.872;20.658;2022-11-15T15:56:53;333.40;2329.60
56436;DHT22;42335;44.872;20.658;2022-11-15T15:59:18;333.40;2329.60
56436;DHT22;42335;44.872;20.658;2022-11-15T16:01:44;333.40;2329.60
56436;DHT22;42335;44.872;20.658;2022-11-15T16:04:10;333.40;2329.60
56436;DHT22;42335;44.872;20.658;2022-11-15T16:06:40;333.40;2329.60
56436;DHT22;42335;44.872;20.658;2022-11-15T16:09:13;333.40;2329.60
56436;DHT22;42335;44.872;20.658;2022-11-15T16:11:43;333.30;2329.60
56436;DHT22;42335;44.872;20.658;2022-11-15T16:14:09;333.40;2329.60
56436;DHT22;42335;44.872;20.658;2022-11-15T16:16:36;333.40;2329.60
56436;DHT22;42335;44.872;20.658;2022-11-15T16:19:02;333.30;2329.60
56436;DHT22;42335;44.872;20.658;2022-11-15T16:21:28;333.30;2329.60
56436;DHT22;42335;44.872;20.658;2022-11-15T16:23:54;333.20;2329.60
56436;DHT22;42335;44.872;20.658;2022-11-15T16:26:27;333.20;2329.60
56436;DHT22;42335;44.872;20.658;2022-11-15T16:28:54;333.20;2329.60
56436;DHT22;42335;44.872;20.658;2022-11-15T16:31:20;333.20;2329.60
56436;DHT22;42335;44.872;20.658;2022-11-15T16:33:49;333.20;2329.60
56436;DHT22;42335;44.872;20.658;2022-11-15T16:36:19;333.10;2329.60
56436;DHT22;42335;44.872;20.658;2022-11-15T16:38:45;333.10;2329.60
56436;DHT22;42335;44.872;20.658;2022-11-15T16:41:11;333.00;2329.60
56436;DHT22;42335;44.872;20.658;2022-11-15T16:43:36;333.00;2329.60
56436;DHT22;42335;44.872;20.658;2022-11-15T16:46:08;332.90;2329.60
56436;DHT22;42335;44.872;20.658;2022-11-15T16:48:38;332.90;2329.60
56436;DHT22;42335;44.872;20.658;2022-11-15T16:51:04;332.90;2329.60
56436;DHT22;42335;44.872;20.658;2022-11-15T16:53:30;332.80;2329.60
56436;DHT22;42335;44.872;20.658;2022-11-15T16:55:57;308.10;2304.00
56436;DHT22;42335;44.872;20.658;2022-11-15T16:58:23;308.00;2304.00
56436;DHT22;42335;44.872;20.658;2022-11-15T17:00:53;307.90;2304.00
56436;DHT22;42335;44.872;20.658;2022-11-15T17:05:46;332.80;2329.60
56436;DHT22;42335;44.872;20.658;2022-11-15T17:08:12;308.10;2304.00
56436;DHT22;42335;44.872;20.658;2022-11-15T17:10:40;308.10;2304.00
56436;DHT22;42335;44.872;20.658;2022-11-15T17:13:10;307.90;2304.00
56436;DHT22;42335;44.872;20.658;2022-11-15T17:18:04;307.90;2304.00
56436;DHT22;42335;44.872;20.658;2022-11-15T17:20:31;307.90;2304.00
56436;DHT22;42335;44.872;20.658;2022-11-15T17:22:57;307.60;2304.00
56436;DHT22;42335;44.872;20.658;2022-11-15T17:25:23;307.50;2304.00
56436;DHT22;42335;44.872;20.658;2022-11-15T17:27:48;307.60;2304.00
56436;DHT22;42335;44.872;20.658;2022-11-15T17:30:15;307.50;2304.00
56436;DHT22;42335;44.872;20.658;2022-11-15T17:32:41;307.40;2304.00
56436;DHT22;42335;44.872;20.658;2022-11-15T17:35:08;307.40;2304.00
56436;DHT22;42335;44.872;20.658;2022-11-15T17:37:35;307.30;2304.00
56436;DHT22;42335;44.872;20.658;2022-11-15T17:40:01;307.40;2304.00
56436;DHT22;42335;44.872;20.658;2022-11-15T17:42:26;307.60;2304.00
56436;DHT22;42335;44.872;20.658;2022-11-15T17:44:52;307.50;2304.00
56436;DHT22;42335;44.872;20.658;2022-11-15T17:47:18;307.60;2304.00
